CheckWX is a tool to help pilots better visualize weather data.  It is not intended as a substitute for an official pre-flight weather briefing.

20:37:29 UTC

KTVY METAR
Bolinder Field-Tooele Valley Airport
Tooele, Utah, USA
Current

22 mins ago

KTVY 162015Z AUTO 02010KT 10SM CLR 31/12 A2991 RMK AO2
Observed
Jul-16 @ 20:15 UTC
Wind
  • 020° at 10 KTS
Visibility
10 SM
Flight Rules
VFR
Cloud Levels
  • Clear skies
Temperature
31°C / 88°F
Dewpoint
12°C / 54°F
Humidity
31%
Altimeter
29.91" Hg
Pressure
1012.92 hPa
Previous

42 mins ago

KTVY 161955Z AUTO 02011KT 10SM CLR 31/12 A2993 RMK AO2
Observed
Jul-16 @ 19:55 UTC
Wind
  • 020° at 11 KTS
Visibility
10 SM
Flight Rules
VFR
Cloud Levels
  • Clear skies
Temperature
31°C / 88°F
Dewpoint
12°C / 54°F
Humidity
31%
Altimeter
29.93" Hg
Pressure
1013.52 hPa
Previous

1 hour ago

KTVY 161935Z AUTO 36011KT 10SM CLR 30/12 A2993 RMK AO2
Observed
Jul-16 @ 19:35 UTC
Wind
  • 360° at 11 KTS
Visibility
10 SM
Flight Rules
VFR
Cloud Levels
  • Clear skies
Temperature
30°C / 86°F
Dewpoint
12°C / 54°F
Humidity
33%
Altimeter
29.93" Hg
Pressure
1013.52 hPa